TimeCST,TemperatureF,Dew PointF,Humidity,Sea Level PressureIn,VisibilityMPH,Wind Direction,Wind SpeedMPH,Gust SpeedMPH,PrecipitationIn,Events,Conditions,WindDirDegrees,DateUTC
12:13 AM,32.0,28.4,87,29.98,5.0,SW,4.6,-,N/A,,Overcast,220,2011-11-23 06:13:00
12:33 AM,32.0,28.4,87,29.98,5.0,WSW,8.1,-,N/A,,Overcast,250,2011-11-23 06:33:00
12:52 AM,32.0,28.4,87,29.98,5.0,SW,5.8,-,N/A,,Overcast,230,2011-11-23 06:52:00
1:13 AM,30.2,28.4,93,29.99,4.0,WSW,4.6,-,N/A,,Overcast,240,2011-11-23 07:13:00
1:33 AM,30.2,28.4,93,29.98,4.0,SW,5.8,-,N/A,,Overcast,230,2011-11-23 07:33:00
1:52 AM,30.2,28.4,93,29.98,4.0,SSW,5.8,-,N/A,,Overcast,210,2011-11-23 07:52:00
2:13 AM,30.2,28.4,93,29.98,4.0,SW,5.8,-,N/A,,Overcast,230,2011-11-23 08:13:00
2:33 AM,30.2,28.4,93,29.98,4.0,SSW,4.6,-,N/A,,Overcast,210,2011-11-23 08:33:00
2:52 AM,30.2,28.4,93,29.97,4.0,SSW,4.6,-,N/A,,Overcast,210,2011-11-23 08:52:00
3:13 AM,30.2,28.4,93,29.96,4.0,SSW,3.5,-,N/A,,Overcast,210,2011-11-23 09:13:00
3:33 AM,30.2,28.4,93,29.96,3.0,SW,4.6,-,N/A,,Overcast,220,2011-11-23 09:33:00
3:52 AM,30.2,28.4,93,29.95,2.5,SSW,9.2,-,N/A,,Overcast,210,2011-11-23 09:52:00
4:13 AM,30.2,28.4,93,29.93,3.0,SSW,10.4,-,N/A,,Overcast,210,2011-11-23 10:13:00
4:33 AM,30.2,28.4,93,29.93,3.0,SSW,9.2,-,N/A,,Overcast,210,2011-11-23 10:33:00
4:52 AM,30.2,28.4,93,29.93,3.0,SSW,6.9,-,N/A,,Overcast,210,2011-11-23 10:52:00
5:13 AM,30.2,28.4,93,29.92,3.0,SSW,8.1,-,N/A,,Overcast,210,2011-11-23 11:13:00
5:33 AM,30.2,28.4,93,29.92,3.0,SSW,8.1,-,N/A,,Overcast,210,2011-11-23 11:33:00
5:52 AM,30.2,28.4,93,29.93,3.0,SW,6.9,-,N/A,,Overcast,230,2011-11-23 11:52:00
6:13 AM,30.2,28.4,93,29.94,3.0,SSW,8.1,-,N/A,,Overcast,210,2011-11-23 12:13:00
6:33 AM,30.2,28.4,93,29.93,3.0,SW,10.4,-,N/A,,Overcast,220,2011-11-23 12:33:00
6:52 AM,30.2,28.4,93,29.94,3.0,SW,8.1,-,N/A,,Overcast,220,2011-11-23 12:52:00
7:13 AM,30.2,28.4,93,29.95,3.0,WSW,9.2,16.1,N/A,,Overcast,240,2011-11-23 13:13:00
7:33 AM,30.2,28.4,93,29.92,2.5,SSW,11.5,17.3,N/A,,Overcast,210,2011-11-23 13:33:00
7:52 AM,30.2,28.4,93,29.93,2.5,SSW,5.8,-,N/A,,Overcast,210,2011-11-23 13:52:00
8:13 AM,30.2,28.4,93,29.93,2.5,SW,6.9,-,N/A,,Overcast,220,2011-11-23 14:13:00
8:32 AM,30.2,28.4,93,29.91,3.0,SSW,10.4,-,N/A,,Overcast,200,2011-11-23 14:32:00
8:53 AM,32.0,28.4,87,29.90,4.0,SSW,8.1,16.1,N/A,,Overcast,210,2011-11-23 14:53:00
9:13 AM,32.0,28.4,87,29.90,5.0,SSW,8.1,-,N/A,,Mostly Cloudy,210,2011-11-23 15:13:00
9:32 AM,33.8,30.2,87,29.90,5.0,SSW,8.1,-,N/A,,Scattered Clouds,210,2011-11-23 15:32:00
9:53 AM,35.6,30.2,81,29.89,7.0,SSW,10.4,-,N/A,,Clear,210,2011-11-23 15:53:00
10:13 AM,37.4,30.2,75,29.89,7.0,SSW,12.7,17.3,N/A,,Clear,200,2011-11-23 16:13:00
10:32 AM,37.4,30.2,75,29.89,7.0,SSW,11.5,-,N/A,,Clear,210,2011-11-23 16:32:00
10:52 AM,37.4,30.2,75,29.90,10.0,SSW,10.4,-,N/A,,Clear,210,2011-11-23 16:52:00
11:13 AM,39.2,30.2,70,29.88,10.0,SSW,13.8,18.4,N/A,,Clear,210,2011-11-23 17:13:00
11:33 AM,39.2,30.2,70,29.87,10.0,SW,12.7,17.3,N/A,,Clear,220,2011-11-23 17:33:00
11:52 AM,41.0,30.2,65,29.88,10.0,SW,9.2,-,N/A,,Clear,220,2011-11-23 17:52:00
12:13 PM,42.8,30.2,61,29.87,10.0,SSW,9.2,-,N/A,,Clear,210,2011-11-23 18:13:00
12:33 PM,42.8,30.2,61,29.85,10.0,SSW,6.9,-,N/A,,Clear,210,2011-11-23 18:33:00
12:52 PM,42.8,30.2,61,29.85,10.0,SSW,10.4,17.3,N/A,,Clear,210,2011-11-23 18:52:00
1:13 PM,44.6,30.2,57,29.84,10.0,SW,6.9,18.4,N/A,,Clear,220,2011-11-23 19:13:00
1:33 PM,44.6,30.2,57,29.85,10.0,SW,10.4,16.1,N/A,,Clear,230,2011-11-23 19:33:00
1:52 PM,46.4,30.2,53,29.85,10.0,SW,12.7,18.4,N/A,,Clear,220,2011-11-23 19:52:00
2:13 PM,46.4,30.2,53,29.85,10.0,SW,10.4,19.6,N/A,,Clear,230,2011-11-23 20:13:00
2:32 PM,46.4,30.2,53,29.85,10.0,SW,10.4,19.6,N/A,,Clear,220,2011-11-23 20:32:00
2:53 PM,46.4,30.2,53,29.84,10.0,SW,8.1,19.6,N/A,,Clear,230,2011-11-23 20:53:00
3:13 PM,46.4,30.2,53,29.85,10.0,SW,12.7,16.1,N/A,,Clear,230,2011-11-23 21:13:00
3:32 PM,44.6,30.2,57,29.86,10.0,WSW,8.1,-,N/A,,Clear,240,2011-11-23 21:32:00
3:53 PM,44.6,30.2,57,29.87,10.0,WSW,3.5,-,N/A,,Clear,240,2011-11-23 21:53:00
4:12 PM,44.6,30.2,57,29.87,10.0,SW,5.8,-,N/A,,Clear,230,2011-11-23 22:12:00
4:32 PM,42.8,30.2,61,29.87,10.0,SW,3.5,-,N/A,,Clear,220,2011-11-23 22:32:00
4:53 PM,42.8,30.2,61,29.88,10.0,SSW,3.5,-,N/A,,Clear,210,2011-11-23 22:53:00
5:12 PM,41.0,30.2,65,29.88,10.0,SSW,4.6,-,N/A,,Clear,200,2011-11-23 23:12:00
5:32 PM,39.2,30.2,70,29.89,10.0,SSW,6.9,-,N/A,,Clear,210,2011-11-23 23:32:00
5:53 PM,39.2,30.2,70,29.89,10.0,SSW,6.9,-,N/A,,Clear,210,2011-11-23 23:53:00
6:12 PM,39.2,30.2,70,29.89,10.0,SSW,5.8,-,N/A,,Clear,210,2011-11-24 00:12:00
6:32 PM,37.4,30.2,75,29.89,10.0,SSW,6.9,-,N/A,,Clear,210,2011-11-24 00:32:00
6:53 PM,37.4,30.2,75,29.89,10.0,SSW,8.1,-,N/A,,Clear,210,2011-11-24 00:53:00
7:12 PM,37.4,30.2,75,29.89,10.0,SSW,8.1,-,N/A,,Clear,210,2011-11-24 01:12:00
7:32 PM,37.4,30.2,75,29.89,10.0,SSW,8.1,-,N/A,,Clear,210,2011-11-24 01:32:00
7:53 PM,37.4,30.2,75,29.89,10.0,SSW,6.9,-,N/A,,Clear,210,2011-11-24 01:53:00
8:13 PM,37.4,30.2,75,29.88,10.0,SSW,8.1,-,N/A,,Clear,210,2011-11-24 02:13:00
8:32 PM,37.4,30.2,75,29.88,10.0,SW,4.6,-,N/A,,Clear,220,2011-11-24 02:32:00
8:53 PM,37.4,30.2,75,29.89,10.0,SW,4.6,-,N/A,,Clear,220,2011-11-24 02:53:00
9:12 PM,35.6,30.2,81,29.89,10.0,SW,3.5,-,N/A,,Clear,220,2011-11-24 03:12:00
9:32 PM,35.6,30.2,81,29.89,10.0,SW,5.8,-,N/A,,Clear,220,2011-11-24 03:32:00
9:53 PM,35.6,30.2,81,29.87,10.0,SSW,3.5,-,N/A,,Clear,200,2011-11-24 03:53:00
10:12 PM,35.6,30.2,81,29.87,10.0,SW,5.8,-,N/A,,Clear,220,2011-11-24 04:12:00
10:33 PM,35.6,30.2,81,29.87,10.0,SW,5.8,-,N/A,,Clear,220,2011-11-24 04:33:00
10:52 PM,35.6,30.2,81,29.85,7.0,SSW,8.1,-,N/A,,Clear,200,2011-11-24 04:52:00
11:13 PM,35.6,32.0,87,29.85,7.0,SSW,11.5,-,N/A,,Clear,210,2011-11-24 05:13:00
11:33 PM,35.6,32.0,87,29.84,7.0,SSW,10.4,-,N/A,,Clear,210,2011-11-24 05:33:00
11:52 PM,35.6,32.0,87,29.84,7.0,SSW,9.2,-,N/A,,Clear,210,2011-11-24 05:52:00